Time;durP1;ratioP1;P1;durP2;ratioP2;P2;SDS_P1;SDS_P2;PMS_P1;PMS_P2;Temp;Humidity;BMP_temperature;BMP_pressure;BME280_temperature;BME280_humidity;BME280_pressure;Samples;Min_cycle;Max_cycle;Signal;HPM_P1;HPM_P2
2023/01/23 00:01:17;;;;;;;13.52;12.38;;;;;;;2.75;100.00;103545.00;10231242;28;20129;-67
2023/01/23 00:06:15;;;;;;;14.38;13.38;;;;;;;2.76;100.00;103548.53;10231307;28;20048;-67
2023/01/23 00:11:16;;;;;;;12.88;12.02;;;;;;;2.80;100.00;103549.81;10244389;28;20041;-67
2023/01/23 00:16:17;;;;;;;13.40;12.40;;;;;;;2.63;100.00;103555.50;10232438;28;20717;-66
2023/01/23 00:21:16;;;;;;;12.63;11.68;;;;;;;2.66;100.00;103556.97;10240446;28;20053;-68
2023/01/23 00:26:16;;;;;;;13.70;12.55;;;;;;;2.80;100.00;103566.03;10225156;28;20049;-68
2023/01/23 00:31:24;;;;;;;12.95;11.82;;;;;;;2.85;100.00;103563.56;10216149;28;20045;-68
2023/01/23 00:36:20;;;;;;;12.45;11.55;;;;;;;2.87;100.00;103556.09;10232174;28;20042;-69
2023/01/23 00:41:17;;;;;;;12.02;11.23;;;;;;;2.86;100.00;103565.25;10226444;28;20486;-66
2023/01/23 00:46:13;;;;;;;12.55;11.35;;;;;;;2.80;100.00;103571.44;10232621;28;20124;-66
2023/01/23 00:51:10;;;;;;;11.75;10.80;;;;;;;2.73;100.00;103572.22;10227535;28;20045;-66
2023/01/23 00:56:07;;;;;;;11.50;10.70;;;;;;;2.65;100.00;103568.84;10229875;28;20158;-66
2023/01/23 01:01:04;;;;;;;13.48;12.05;;;;;;;2.77;100.00;103566.44;10237915;28;20506;-67
2023/01/23 01:06:01;;;;;;;12.57;11.55;;;;;;;2.81;100.00;103575.81;10233374;28;20033;-67
2023/01/23 01:10:57;;;;;;;12.65;11.65;;;;;;;2.76;100.00;103580.97;10237058;28;20148;-66
2023/01/23 01:15:54;;;;;;;11.73;10.85;;;;;;;2.77;100.00;103577.25;10240480;28;20092;-66
2023/01/23 01:20:50;;;;;;;12.00;11.18;;;;;;;2.58;100.00;103584.97;10233097;28;20045;-67
2023/01/23 01:25:47;;;;;;;13.73;12.68;;;;;;;2.40;100.00;103588.13;10223184;28;20117;-66
2023/01/23 01:30:43;;;;;;;13.88;12.88;;;;;;;2.47;100.00;103599.00;10226557;28;20054;-66
2023/01/23 01:35:40;;;;;;;15.20;14.15;;;;;;;2.57;100.00;103599.50;10231724;28;20100;-66
2023/01/23 01:40:36;;;;;;;15.75;14.75;;;;;;;2.53;100.00;103599.06;10227448;28;20530;-67
2023/01/23 01:45:54;;;;;;;15.70;14.63;;;;;;;2.50;100.00;103614.81;10228447;28;20583;-67
2023/01/23 01:50:52;;;;;;;15.57;14.38;;;;;;;2.36;100.00;103613.84;10226260;28;20081;-66
2023/01/23 01:55:48;;;;;;;14.18;13.27;;;;;;;2.31;100.00;103617.09;10233212;28;20514;-65
2023/01/23 02:00:45;;;;;;;15.68;14.63;;;;;;;2.26;100.00;103619.53;10235330;28;20073;-65
2023/01/23 02:05:46;;;;;;;16.05;14.75;;;;;;;2.45;100.00;103622.66;11238445;23;20141;-67
2023/01/23 02:10:43;;;;;;;17.95;16.50;;;;;;;2.28;100.00;103622.91;10151356;28;20042;-69
2023/01/23 02:15:40;;;;;;;17.80;16.45;;;;;;;2.18;100.00;103627.78;10152519;28;20056;-70
2023/01/23 02:20:36;;;;;;;18.60;17.20;;;;;;;2.33;100.00;103635.81;10141866;28;20074;-69
2023/01/23 02:25:43;;;;;;;18.05;16.63;;;;;;;2.33;100.00;103630.44;10156992;28;20056;-69
2023/01/23 02:30:41;;;;;;;20.10;18.58;;;;;;;2.12;100.00;103633.09;10145014;28;20064;-68
2023/01/23 02:35:38;;;;;;;20.15;18.73;;;;;;;2.16;100.00;103629.84;10152992;28;20517;-68
2023/01/23 02:40:38;;;;;;;19.45;18.25;;;;;;;2.35;100.00;103630.25;10144462;28;20057;-68
2023/01/23 02:45:35;;;;;;;18.98;17.63;;;;;;;2.38;100.00;103619.06;10157248;28;20046;-70
2023/01/23 02:50:31;;;;;;;18.98;17.67;;;;;;;2.42;100.00;103618.47;10150033;28;20100;-70
2023/01/23 02:55:32;;;;;;;20.17;18.67;;;;;;;2.30;100.00;103610.03;10157976;28;20061;-70
2023/01/23 03:00:29;;;;;;;22.20;20.67;;;;;;;2.12;100.00;103612.34;10154246;28;20089;-70
2023/01/23 03:05:25;;;;;;;21.55;20.25;;;;;;;2.08;100.00;103616.44;10138833;28;20053;-70
2023/01/23 03:10:22;;;;;;;21.58;20.08;;;;;;;2.00;100.00;103614.69;10150777;28;20129;-70
2023/01/23 03:15:18;;;;;;;24.60;22.83;;;;;;;1.89;100.00;103607.91;10146876;28;20065;-70
2023/01/23 03:20:18;;;;;;;24.50;22.90;;;;;;;1.84;100.00;103610.34;10151742;28;20539;-71
2023/01/23 03:25:15;;;;;;;24.17;22.58;;;;;;;2.00;100.00;103624.66;10147330;28;20054;-71
2023/01/23 03:30:14;;;;;;;25.70;24.10;;;;;;;2.01;100.00;103626.31;10158135;28;20089;-70
2023/01/23 03:35:15;;;;;;;22.58;21.17;;;;;;;1.97;100.00;103627.72;10142038;28;20050;-70
2023/01/23 03:45:32;;;;;;;24.13;22.60;;;;;;;1.97;100.00;103635.81;10143525;28;20411;-70
2023/01/23 03:50:29;;;;;;;24.75;23.25;;;;;;;2.07;100.00;103641.75;10154161;28;20660;-70
2023/01/23 03:55:25;;;;;;;24.48;22.83;;;;;;;2.08;100.00;103648.81;10145312;28;20419;-71
2023/01/23 04:00:22;;;;;;;23.85;22.15;;;;;;;2.10;100.00;103652.16;10155056;28;20061;-70
2023/01/23 04:05:18;;;;;;;21.95;20.33;;;;;;;2.02;100.00;103653.13;10144070;28;20070;-70
2023/01/23 04:10:15;;;;;;;22.80;21.35;;;;;;;2.03;100.00;103651.25;10154571;28;20074;-70
2023/01/23 04:15:11;;;;;;;22.30;20.65;;;;;;;2.03;100.00;103651.25;10153577;28;20133;-70
2023/01/23 04:20:08;;;;;;;22.42;20.85;;;;;;;2.07;100.00;103652.56;10145525;28;20112;-71
2023/01/23 04:25:06;;;;;;;20.70;19.25;;;;;;;1.84;100.00;103658.91;10146702;28;20046;-71
2023/01/23 04:30:02;;;;;;;20.20;18.98;;;;;;;1.86;100.00;103664.94;10136393;28;20046;-71
2023/01/23 04:34:59;;;;;;;21.10;19.38;;;;;;;1.93;100.00;103672.28;10148552;28;20046;-71
2023/01/23 04:39:55;;;;;;;20.42;18.88;;;;;;;2.02;100.00;103682.81;10143933;28;20050;-72
2023/01/23 04:44:52;;;;;;;19.30;17.85;;;;;;;2.00;100.00;103676.75;10132657;28;20070;-72
2023/01/23 04:49:48;;;;;;;20.02;18.60;;;;;;;2.03;100.00;103678.25;10143103;28;20523;-71
2023/01/23 04:54:45;;;;;;;19.85;18.45;;;;;;;1.89;100.00;103675.34;10149138;28;20137;-71
2023/01/23 04:59:41;;;;;;;21.38;19.98;;;;;;;2.09;100.00;103685.59;10149665;28;20712;-71
2023/01/23 05:04:38;;;;;;;21.10;19.52;;;;;;;1.98;100.00;103680.69;10144709;28;20057;-71
2023/01/23 05:09:34;;;;;;;21.92;20.55;;;;;;;2.10;100.00;103684.56;10149182;28;20536;-71
2023/01/23 05:14:31;;;;;;;21.85;20.50;;;;;;;2.05;100.00;103689.69;10148236;28;20558;-72
2023/01/23 05:19:27;;;;;;;21.15;19.67;;;;;;;2.07;100.00;103695.75;10129224;28;20074;-71
2023/01/23 05:24:24;;;;;;;22.63;21.15;;;;;;;2.07;100.00;103701.13;10148620;28;20085;-72
2023/01/23 05:29:20;;;;;;;22.63;20.98;;;;;;;2.15;100.00;103708.28;10143300;28;20049;-69
2023/01/23 05:34:17;;;;;;;23.42;21.77;;;;;;;2.11;100.00;103713.22;10143650;28;20129;-71
2023/01/23 05:39:13;;;;;;;23.30;21.58;;;;;;;2.13;100.00;103716.56;10144107;28;21402;-72
2023/01/23 05:44:10;;;;;;;25.25;23.35;;;;;;;2.15;100.00;103719.91;10143240;28;20524;-72
2023/01/23 05:49:06;;;;;;;25.52;23.80;;;;;;;2.18;100.00;103724.97;10138112;28;20054;-72
2023/01/23 05:54:03;;;;;;;26.48;24.40;;;;;;;2.21;100.00;103734.56;10142752;28;20133;-71
2023/01/23 05:58:59;;;;;;;25.65;23.63;;;;;;;2.18;100.00;103730.38;10132042;28;20100;-72
2023/01/23 06:03:56;;;;;;;26.13;24.02;;;;;;;2.24;100.00;103729.59;10140253;28;20069;-71
2023/01/23 06:08:52;;;;;;;26.65;24.70;;;;;;;2.22;100.00;103737.03;10142725;28;20050;-72
2023/01/23 06:13:48;;;;;;;27.40;25.48;;;;;;;2.22;100.00;103741.59;10149187;28;20500;-72
2023/01/23 06:18:45;;;;;;;26.95;25.15;;;;;;;2.19;100.00;103737.41;10144337;28;20057;-71
2023/01/23 06:23:41;;;;;;;25.65;23.77;;;;;;;2.23;100.00;103743.31;10143191;28;20423;-71
2023/01/23 06:28:38;;;;;;;26.45;24.63;;;;;;;2.24;100.00;103756.59;10135413;28;20055;-71
2023/01/23 06:33:36;;;;;;;26.92;25.00;;;;;;;2.23;100.00;103756.81;10148687;28;20081;-72
2023/01/23 06:38:34;;;;;;;27.05;24.95;;;;;;;2.25;100.00;103763.69;10139633;28;20116;-72
2023/01/23 06:43:30;;;;;;;27.92;26.02;;;;;;;2.25;100.00;103747.47;10150013;28;20046;-71
2023/01/23 06:48:27;;;;;;;28.27;25.80;;;;;;;2.28;100.00;103757.91;10145272;28;20062;-71
2023/01/23 06:53:23;;;;;;;30.70;27.02;;;;;;;2.10;100.00;103757.44;10151342;28;20049;-71
2023/01/23 06:58:20;;;;;;;28.45;26.45;;;;;;;2.22;100.00;103769.44;10141582;28;20038;-71
2023/01/23 07:03:16;;;;;;;29.10;26.88;;;;;;;2.16;100.00;103775.59;10149134;28;20069;-71
2023/01/23 07:08:13;;;;;;;29.52;27.42;;;;;;;2.24;100.00;103783.59;10153281;28;20076;-71
2023/01/23 07:13:10;;;;;;;28.70;26.65;;;;;;;2.26;100.00;103786.94;10146459;28;20113;-71
2023/01/23 07:18:08;;;;;;;28.38;26.20;;;;;;;2.21;100.00;103800.16;10144688;28;20137;-73
2023/01/23 07:23:04;;;;;;;29.35;27.05;;;;;;;2.25;100.00;103790.69;10151779;28;20046;-72
2023/01/23 07:28:01;;;;;;;29.67;27.23;;;;;;;2.29;100.00;103797.38;10152005;28;20150;-72
2023/01/23 07:32:58;;;;;;;29.45;27.13;;;;;;;2.26;100.00;103797.75;10136629;28;20105;-72
2023/01/23 07:37:55;;;;;;;30.38;28.00;;;;;;;2.27;100.00;103798.56;10130189;28;20081;-72
2023/01/23 07:42:51;;;;;;;27.95;25.83;;;;;;;2.35;100.00;103800.38;10132606;28;20073;-72
2023/01/23 07:47:48;;;;;;;28.63;26.42;;;;;;;2.31;100.00;103803.41;10131609;28;20133;-72
2023/01/23 07:52:44;;;;;;;29.42;27.15;;;;;;;2.36;100.00;103810.13;10132060;28;20095;-72
2023/01/23 07:57:41;;;;;;;30.40;28.05;;;;;;;2.35;100.00;103822.81;10130294;28;20056;-73
2023/01/23 08:02:38;;;;;;;27.42;25.33;;;;;;;2.38;100.00;103825.13;10137456;28;20054;-72
2023/01/23 08:07:34;;;;;;;26.80;24.77;;;;;;;2.36;100.00;103834.44;10146525;28;20046;-72
2023/01/23 08:12:30;;;;;;;27.92;25.65;;;;;;;2.39;100.00;103834.06;10136962;28;20074;-73
2023/01/23 08:17:27;;;;;;;29.63;27.42;;;;;;;2.39;100.00;103847.56;10141925;28;20081;-72
2023/01/23 08:22:23;;;;;;;26.40;24.50;;;;;;;2.26;100.00;103840.94;10149169;28;20061;-72
2023/01/23 08:27:20;;;;;;;27.92;25.52;;;;;;;2.37;100.00;103841.50;10145964;28;20494;-73
2023/01/23 08:32:16;;;;;;;27.38;24.98;;;;;;;2.39;100.00;103850.25;10146788;28;20088;-72
2023/01/23 08:37:13;;;;;;;26.10;24.20;;;;;;;2.55;100.00;103860.88;10151689;28;20046;-73
2023/01/23 08:42:09;;;;;;;25.52;23.63;;;;;;;2.50;100.00;103857.91;10149775;28;20041;-72
2023/01/23 08:47:06;;;;;;;24.77;22.98;;;;;;;2.62;100.00;103867.22;10139641;28;20042;-72
2023/01/23 08:52:04;;;;;;;25.05;23.13;;;;;;;2.54;100.00;103867.31;10145992;28;20337;-72
2023/01/23 08:57:01;;;;;;;24.40;22.23;;;;;;;2.56;100.00;103878.78;10145143;28;20077;-72
2023/01/23 09:01:58;;;;;;;26.48;24.48;;;;;;;2.57;100.00;103872.31;10142091;28;20362;-72
2023/01/23 09:06:54;;;;;;;26.70;24.63;;;;;;;2.69;100.00;103884.38;10145751;28;20073;-72
2023/01/23 09:11:50;;;;;;;26.90;24.95;;;;;;;2.62;100.00;103882.56;10149461;28;20043;-72
2023/01/23 09:16:47;;;;;;;28.25;25.77;;;;;;;2.68;100.00;103893.47;10144489;28;20077;-72
2023/01/23 09:21:44;;;;;;;28.45;25.70;;;;;;;2.74;100.00;103887.34;10147535;28;20161;-72
2023/01/23 09:26:42;;;;;;;26.80;24.50;;;;;;;2.88;100.00;103876.72;10149980;28;20050;-72
2023/01/23 09:31:39;;;;;;;25.52;23.10;;;;;;;2.89;100.00;103873.78;10140134;28;20046;-72
2023/01/23 09:36:35;;;;;;;25.00;22.67;;;;;;;2.88;100.00;103874.00;10144196;28;21394;-72
2023/01/23 09:41:39;;;;;;;25.50;23.13;;;;;;;2.90;100.00;103877.34;10146914;28;20468;-72
2023/01/23 09:46:48;;;;;;;26.77;23.98;;;;;;;2.84;100.00;103870.00;10143306;28;20081;-71
2023/01/23 09:52:04;;;;;;;23.73;21.67;;;;;;;2.94;100.00;103875.94;10144119;28;20130;-72
2023/01/23 09:57:10;;;;;;;24.40;22.27;;;;;;;3.02;100.00;103883.94;10144043;28;20048;-72
2023/01/23 10:02:18;;;;;;;23.17;21.25;;;;;;;2.97;100.00;103880.97;10148098;28;20042;-73
2023/01/23 10:07:21;;;;;;;23.45;21.48;;;;;;;3.15;100.00;103873.25;10146606;28;20523;-72
2023/01/23 10:12:39;;;;;;;23.17;21.05;;;;;;;3.20;100.00;103858.34;10147389;28;20062;-72
2023/01/23 10:17:50;;;;;;;22.92;20.48;;;;;;;3.20;100.00;103850.22;10154845;28;20042;-72
2023/01/23 10:23:22;;;;;;;23.33;21.23;;;;;;;3.05;100.00;103856.53;10142843;28;20050;-71
2023/01/23 10:28:39;;;;;;;22.65;20.38;;;;;;;3.32;100.00;103846.03;10151289;28;20054;-72
2023/01/23 10:33:44;;;;;;;22.45;20.02;;;;;;;3.34;100.00;103843.94;10151012;28;20133;-72
2023/01/23 10:38:48;;;;;;;22.98;20.67;;;;;;;3.34;100.00;103857.44;10154190;28;20050;-72
2023/01/23 10:43:50;;;;;;;22.55;20.55;;;;;;;3.40;100.00;103855.88;10149048;28;20050;-72
2023/01/23 10:48:49;;;;;;;29.75;20.92;;;;;;;3.33;100.00;103855.78;10151233;28;20082;-72
2023/01/23 10:54:01;;;;;;;22.65;20.13;;;;;;;3.51;100.00;103855.34;10133032;28;20431;-73
2023/01/23 10:59:04;;;;;;;23.05;20.85;;;;;;;3.47;100.00;103860.31;10132308;28;20467;-71
2023/01/23 11:04:17;;;;;;;22.35;20.02;;;;;;;3.47;100.00;103864.88;10131872;28;20544;-70
2023/01/23 11:09:22;;;;;;;22.40;20.30;;;;;;;3.42;100.00;103865.47;10131412;28;20492;-71
2023/01/23 11:14:21;;;;;;;23.00;20.48;;;;;;;3.43;100.00;103869.81;10130881;28;20043;-70
2023/01/23 11:19:21;;;;;;;21.80;19.40;;;;;;;3.43;100.00;103863.59;10136247;28;20061;-71
2023/01/23 11:24:19;;;;;;;22.40;20.13;;;;;;;3.67;100.00;103854.25;10151469;28;20042;-70
2023/01/23 11:29:41;;;;;;;21.50;19.40;;;;;;;3.62;100.00;103862.97;10154237;28;20050;-70
2023/01/23 11:34:44;;;;;;;22.10;20.00;;;;;;;3.61;100.00;103876.66;10151509;28;20042;-69
2023/01/23 11:39:52;;;;;;;20.00;18.05;;;;;;;3.57;100.00;103866.25;10152686;28;20511;-69
2023/01/23 11:44:50;;;;;;;21.17;19.23;;;;;;;3.60;100.00;103865.03;10140191;28;20423;-70
2023/01/23 11:50:13;;;;;;;21.25;18.88;;;;;;;3.74;100.00;103874.09;10151860;28;20057;-70
2023/01/23 11:55:37;;;;;;;23.55;19.38;;;;;;;3.78;100.00;103872.66;10144176;28;20223;-71
2023/01/23 12:01:02;;;;;;;21.23;19.00;;;;;;;3.66;100.00;103876.91;10143685;28;20065;-71
2023/01/23 12:06:14;;;;;;;21.25;18.40;;;;;;;3.76;100.00;103874.72;10130399;28;21112;-72
2023/01/23 12:12:05;;;;;;;21.33;18.67;;;;;;;3.83;100.00;103880.19;10134715;28;20487;-71
2023/01/23 12:17:27;;;;;;;21.25;19.02;;;;;;;3.87;100.00;103876.91;10127214;28;20045;-71
2023/01/23 12:22:33;;;;;;;23.70;19.20;;;;;;;3.82;100.00;103876.66;10132428;28;20092;-70
2023/01/23 12:27:43;;;;;;;21.02;17.45;;;;;;;3.72;100.00;103874.28;10133429;28;20500;-70
2023/01/23 12:33:08;;;;;;;19.42;17.10;;;;;;;3.88;100.00;103880.47;10133137;28;20137;-70
2023/01/23 12:38:33;;;;;;;20.35;18.27;;;;;;;3.89;100.00;103869.44;10130373;28;20043;-71
2023/01/23 12:44:05;;;;;;;19.45;17.02;;;;;;;3.95;100.00;103881.34;10126988;28;20046;-70
2023/01/23 12:49:37;;;;;;;19.33;17.42;;;;;;;3.85;100.00;103876.25;10127610;28;20052;-71
2023/01/23 12:54:41;;;;;;;21.10;17.90;;;;;;;3.77;100.00;103876.41;10129481;28;20078;-71
2023/01/23 13:00:04;;;;;;;22.30;17.45;;;;;;;3.82;100.00;103876.66;10130951;28;20051;-70
2023/01/23 13:05:20;;;;;;;19.07;17.07;;;;;;;3.81;100.00;103872.28;10093119;28;20101;-71
2023/01/23 13:10:22;;;;;;;20.08;16.85;;;;;;;3.84;100.00;103861.06;10151170;28;20480;-71
2023/01/23 13:15:23;;;;;;;19.73;17.73;;;;;;;3.92;100.00;103873.59;10147300;28;20129;-70
2023/01/23 13:26:21;;;;;;;19.52;17.30;;;;;;;3.97;100.00;103884.72;10146059;28;20744;-71
2023/01/23 13:31:38;;;;;;;22.40;19.77;;;;;;;3.99;100.00;103886.19;10143365;28;20543;-71
2023/01/23 13:36:36;;;;;;;23.35;18.65;;;;;;;3.90;100.00;103884.66;10149657;28;20046;-70
2023/01/23 13:41:33;;;;;;;20.88;18.73;;;;;;;3.79;100.00;103886.00;10150705;28;20078;-71
2023/01/23 13:47:01;;;;;;;20.50;18.30;;;;;;;3.83;100.00;103891.00;10151091;28;20078;-71
2023/01/23 13:57:43;;;;;;;19.70;17.58;;;;;;;3.76;100.00;103896.38;9987968;29;20075;-72
2023/01/23 14:08:28;;;;;;;19.10;17.13;;;;;;;3.89;100.00;103893.78;9805917;29;20051;-71
2023/01/23 14:13:46;;;;;;;21.67;17.70;;;;;;;3.79;100.00;103893.28;9690024;29;20055;-71
2023/01/23 14:19:00;;;;;;;20.95;18.52;;;;;;;3.67;100.00;103900.25;9630829;29;20123;-71
2023/01/23 14:24:22;;;;;;;25.52;19.85;;;;;;;3.40;100.00;103891.03;9614090;30;20104;-71
2023/01/23 14:29:23;;;;;;;23.52;19.80;;;;;;;3.58;100.00;103884.16;9728413;29;20079;-71
2023/01/23 14:34:21;;;;;;;19.73;17.92;;;;;;;3.68;100.00;103889.22;9801338;29;20050;-71
2023/01/23 14:39:21;;;;;;;25.38;20.52;;;;;;;3.56;100.00;103897.03;9918263;29;20053;-71
2023/01/23 14:44:22;;;;;;;20.75;18.52;;;;;;;3.59;100.00;103891.22;9922396;29;20048;-72
2023/01/23 14:49:28;;;;;;;20.15;18.08;;;;;;;3.76;100.00;103897.22;10112939;28;20049;-72
2023/01/23 14:54:25;;;;;;;20.27;18.27;;;;;;;3.71;100.00;103893.41;10152987;28;20104;-71
2023/01/23 14:59:40;;;;;;;21.63;19.38;;;;;;;3.72;100.00;103895.94;10154332;28;20046;-71
2023/01/23 15:04:36;;;;;;;21.40;19.27;;;;;;;3.68;100.00;103893.81;10152628;28;20145;-71
2023/01/23 15:09:40;;;;;;;21.13;19.00;;;;;;;3.70;100.00;103880.91;10145889;28;20115;-70
2023/01/23 15:14:38;;;;;;;22.50;18.48;;;;;;;3.57;100.00;103876.22;10148225;28;20050;-72
2023/01/23 15:19:36;;;;;;;25.83;18.88;;;;;;;3.61;100.00;103871.25;10151583;28;20050;-70
2023/01/23 15:24:33;;;;;;;22.75;20.42;;;;;;;3.52;100.00;103863.25;10146501;28;21013;-71
2023/01/23 15:29:30;;;;;;;21.75;19.73;;;;;;;3.57;100.00;103863.53;10154097;28;20046;-70
2023/01/23 15:34:32;;;;;;;21.50;19.42;;;;;;;3.59;100.00;103874.97;10153726;28;20093;-71
2023/01/23 15:39:48;;;;;;;24.95;22.50;;;;;;;3.58;100.00;103856.25;10154829;28;20054;-72
2023/01/23 15:44:44;;;;;;;23.27;20.88;;;;;;;3.40;100.00;103854.00;10145624;28;20093;-71
2023/01/23 15:49:41;;;;;;;24.33;21.73;;;;;;;3.52;100.00;103863.25;10154215;28;20574;-72
2023/01/23 15:54:37;;;;;;;22.38;19.73;;;;;;;3.41;100.00;103869.19;10143626;28;20038;-71
2023/01/23 15:59:35;;;;;;;23.42;21.17;;;;;;;3.37;100.00;103881.44;10150749;28;20046;-72
2023/01/23 16:04:32;;;;;;;25.13;22.63;;;;;;;3.32;100.00;103884.72;10137147;28;20544;-73
2023/01/23 16:09:32;;;;;;;25.48;22.90;;;;;;;3.40;100.00;103886.44;10150451;28;20136;-72
2023/01/23 16:14:28;;;;;;;25.48;22.88;;;;;;;3.44;100.00;103890.44;10142280;28;20050;-71
2023/01/23 16:19:25;;;;;;;26.42;23.00;;;;;;;3.43;100.00;103887.94;10144227;28;20038;-71
2023/01/23 16:24:22;;;;;;;26.02;23.38;;;;;;;3.41;100.00;103884.56;10145269;28;20038;-71
2023/01/23 16:29:31;;;;;;;25.55;23.13;;;;;;;3.45;100.00;103900.22;10150678;28;20504;-74
2023/01/23 16:34:27;;;;;;;26.75;23.42;;;;;;;3.47;100.00;103909.00;10150472;28;20047;-72
2023/01/23 16:39:26;;;;;;;26.75;23.95;;;;;;;3.43;100.00;103902.28;10142491;28;20053;-70
2023/01/23 16:44:22;;;;;;;26.98;24.27;;;;;;;3.44;100.00;103906.69;10150376;28;20038;-72
2023/01/23 16:49:20;;;;;;;26.63;23.80;;;;;;;3.41;100.00;103915.16;10151714;28;20088;-71
2023/01/23 16:54:20;;;;;;;25.25;22.67;;;;;;;3.45;100.00;103911.06;10137643;28;20043;-71
2023/01/23 16:59:24;;;;;;;28.08;23.73;;;;;;;3.38;100.00;103915.56;10151706;28;20050;-71
2023/01/23 17:04:21;;;;;;;28.17;24.10;;;;;;;3.30;100.00;103924.63;10145748;28;20575;-73
2023/01/23 17:09:18;;;;;;;26.85;24.10;;;;;;;3.30;100.00;103929.22;10125013;28;20178;-71
2023/01/23 17:14:21;;;;;;;27.33;24.67;;;;;;;3.26;100.00;103930.59;10142585;28;20065;-71
2023/01/23 17:19:29;;;;;;;26.10;23.27;;;;;;;3.32;100.00;103933.41;10145883;28;20046;-71
2023/01/23 17:24:26;;;;;;;28.73;25.58;;;;;;;3.22;100.00;103942.81;10147160;28;20137;-71
2023/01/23 17:29:23;;;;;;;29.08;25.58;;;;;;;3.29;100.00;103943.75;10132981;28;20046;-71
2023/01/23 17:34:23;;;;;;;27.90;24.10;;;;;;;3.29;100.00;103951.84;10188832;28;21263;-71
2023/01/23 17:39:20;;;;;;;27.50;24.90;;;;;;;3.21;100.00;103951.97;10189559;28;20129;-71
2023/01/23 17:44:16;;;;;;;29.90;26.73;;;;;;;3.25;100.00;103942.44;10188516;28;20180;-71
2023/01/23 17:49:29;;;;;;;26.48;23.67;;;;;;;3.31;100.00;103952.50;10182919;28;20052;-71
2023/01/23 17:54:26;;;;;;;28.13;25.23;;;;;;;3.28;100.00;103963.72;10202630;28;20042;-72
2023/01/23 17:59:22;;;;;;;27.85;23.70;;;;;;;3.32;100.00;103967.72;10173642;28;20157;-71
2023/01/23 18:04:21;;;;;;;28.80;24.50;;;;;;;3.33;100.00;103966.69;10184021;28;20038;-71
2023/01/23 18:09:18;;;;;;;30.58;24.30;;;;;;;3.32;100.00;103960.44;10188327;28;20112;-71
2023/01/23 18:14:29;;;;;;;26.75;23.90;;;;;;;3.26;100.00;103965.78;10188869;28;20074;-71
2023/01/23 18:19:26;;;;;;;28.60;24.95;;;;;;;3.23;100.00;103971.56;10179267;28;20092;-71
2023/01/23 18:24:29;;;;;;;29.35;26.38;;;;;;;3.23;100.00;103975.09;10171589;28;20043;-71
2023/01/23 18:29:44;;;;;;;31.38;26.40;;;;;;;3.10;100.00;103973.03;10178820;28;20046;-71
2023/01/23 18:35:03;;;;;;;31.52;27.27;;;;;;;3.21;100.00;103973.63;10187039;28;20128;-71
2023/01/23 18:40:11;;;;;;;34.15;24.48;;;;;;;3.23;100.00;103976.97;10193253;28;20060;-71
2023/01/23 18:45:14;;;;;;;26.95;24.05;;;;;;;3.21;100.00;103981.72;10196331;28;20161;-71
2023/01/23 18:50:24;;;;;;;32.38;26.15;;;;;;;3.21;100.00;103979.03;10174167;28;20077;-71
2023/01/23 18:55:51;;;;;;;34.60;26.05;;;;;;;3.18;100.00;103988.34;10193354;28;20046;-71
2023/01/23 19:00:52;;;;;;;29.67;24.88;;;;;;;3.14;100.00;103985.16;10186489;28;20060;-71
2023/01/23 19:05:49;;;;;;;31.20;24.15;;;;;;;3.21;100.00;103989.84;10185240;28;20430;-74
2023/01/23 19:10:48;;;;;;;32.13;25.40;;;;;;;3.17;100.00;103995.59;10178178;28;20125;-71
2023/01/23 19:15:56;;;;;;;34.85;26.95;;;;;;;3.17;100.00;103994.78;10192421;28;20053;-71
2023/01/23 19:21:13;;;;;;;28.17;24.15;;;;;;;3.23;100.00;103987.78;10190902;28;20104;-72
2023/01/23 19:26:13;;;;;;;36.55;26.38;;;;;;;3.16;100.00;103991.22;10186588;28;20052;-71
2023/01/23 19:31:22;;;;;;;29.35;24.77;;;;;;;3.21;100.00;103995.25;10194572;28;20148;-71
2023/01/23 19:36:20;;;;;;;30.67;23.98;;;;;;;3.17;100.00;103990.19;10188614;28;20503;-72
2023/01/23 19:41:23;;;;;;;31.20;26.17;;;;;;;3.19;100.00;103991.88;10180529;28;20046;-71
2023/01/23 19:46:21;;;;;;;30.13;26.58;;;;;;;3.09;100.00;103981.38;10188539;28;20053;-71
2023/01/23 19:51:20;;;;;;;36.17;27.42;;;;;;;3.11;100.00;103985.56;10188222;28;20050;-71
2023/01/23 19:56:17;;;;;;;32.95;25.45;;;;;;;3.12;100.00;103981.81;10188372;28;20503;-71
2023/01/23 20:01:33;;;;;;;34.63;27.50;;;;;;;3.05;100.00;103978.19;10185244;28;20045;-72
2023/01/23 20:06:29;;;;;;;30.98;24.30;;;;;;;3.16;100.00;103983.13;10185838;28;20050;-71
2023/01/23 20:11:26;;;;;;;28.70;24.88;;;;;;;3.13;100.00;103983.50;10187707;28;20068;-71
2023/01/23 20:16:23;;;;;;;34.00;26.25;;;;;;;3.08;100.00;103991.31;10185886;28;20050;-72
2023/01/23 20:21:22;;;;;;;33.85;28.33;;;;;;;3.14;100.00;104001.41;10190572;28;20559;-72
2023/01/23 20:26:20;;;;;;;32.05;25.90;;;;;;;3.05;100.00;103994.41;10185932;28;20052;-72
2023/01/23 20:31:16;;;;;;;32.80;26.33;;;;;;;3.12;100.00;103998.03;10200085;28;20100;-71
2023/01/23 20:36:14;;;;;;;32.53;25.77;;;;;;;3.07;100.00;103995.06;10191254;28;20455;-71
2023/01/23 20:41:14;;;;;;;31.65;25.17;;;;;;;3.10;100.00;103991.97;10191525;28;20060;-72
2023/01/23 20:46:12;;;;;;;36.85;27.13;;;;;;;3.14;100.00;103990.56;10181428;28;20077;-72
2023/01/23 20:51:10;;;;;;;38.72;26.92;;;;;;;3.12;100.00;103995.34;10191759;28;20060;-71
2023/01/23 20:56:18;;;;;;;36.08;26.80;;;;;;;3.10;100.00;103989.25;10184557;28;20124;-71
2023/01/23 21:01:17;;;;;;;36.58;26.08;;;;;;;3.11;100.00;103992.81;10188370;28;20141;-71
2023/01/23 21:06:14;;;;;;;33.20;26.65;;;;;;;3.08;100.00;103999.44;10183392;28;20119;-72
2023/01/23 21:11:18;;;;;;;35.80;26.65;;;;;;;3.09;100.00;104003.81;10181546;28;20727;-72
2023/01/23 21:16:16;;;;;;;33.85;29.40;;;;;;;3.07;100.00;104011.28;10178748;28;20046;-71
2023/01/23 21:21:15;;;;;;;34.72;26.65;;;;;;;3.13;100.00;104009.69;10170141;28;20653;-71
2023/01/23 21:26:12;;;;;;;36.70;28.23;;;;;;;3.02;100.00;104019.13;10188295;28;20065;-69
2023/01/23 21:31:14;;;;;;;35.42;27.75;;;;;;;3.04;100.00;104018.91;10189215;28;20046;-67
2023/01/23 21:36:12;;;;;;;33.45;27.08;;;;;;;3.10;100.00;104016.31;10188732;28;20112;-69
2023/01/23 21:41:09;;;;;;;38.95;28.30;;;;;;;3.00;100.00;104017.63;10182078;28;20530;-69
2023/01/23 21:46:06;;;;;;;36.05;27.17;;;;;;;2.99;100.00;104019.47;10184414;28;20049;-69
2023/01/23 21:51:12;;;;;;;36.85;27.05;;;;;;;2.96;100.00;104025.25;10180936;28;20038;-68
2023/01/23 21:56:11;;;;;;;38.00;27.65;;;;;;;2.91;100.00;104035.78;10179207;28;20053;-68
2023/01/23 22:01:31;;;;;;;36.50;26.75;;;;;;;2.94;100.00;104027.31;10185522;28;20200;-69
2023/01/23 22:06:30;;;;;;;37.40;28.80;;;;;;;2.94;100.00;104040.81;10182480;28;20181;-68
2023/01/23 22:11:27;;;;;;;36.80;25.23;;;;;;;2.87;100.00;104037.19;10189817;28;20046;-68
2023/01/23 22:16:23;;;;;;;34.00;25.00;;;;;;;2.93;100.00;104044.56;10195872;28;20069;-69
2023/01/23 22:21:40;;;;;;;36.42;28.38;;;;;;;2.93;100.00;104052.66;10191771;28;20060;-69
2023/01/23 22:26:36;;;;;;;35.80;27.95;;;;;;;2.95;100.00;104050.63;10188967;28;20104;-69
2023/01/23 22:31:33;;;;;;;40.53;27.67;;;;;;;2.94;100.00;104044.34;10197402;28;20694;-69
2023/01/23 22:36:30;;;;;;;31.63;25.38;;;;;;;2.92;100.00;104050.97;10197579;28;20057;-71
2023/01/23 22:41:27;;;;;;;35.20;27.70;;;;;;;2.87;100.00;104039.88;10196987;28;20558;-70
2023/01/23 22:46:24;;;;;;;35.45;26.63;;;;;;;2.94;100.00;104027.31;10197695;28;20631;-69
2023/01/23 22:51:23;;;;;;;36.28;26.15;;;;;;;2.90;100.00;104028.69;10194654;28;20108;-69
2023/01/23 22:56:21;;;;;;;38.15;26.80;;;;;;;2.91;100.00;104022.28;10193863;28;20532;-69